createdAt,value
2023-04-15T00:01:19.362Z,8.89
2023-04-15T00:03:48.747Z,8.83
2023-04-15T00:06:16.537Z,8.82
2023-04-15T00:08:43.831Z,8.81
2023-04-15T00:11:10.768Z,8.80
2023-04-15T00:13:39.541Z,8.77
2023-04-15T00:16:09.751Z,8.75
2023-04-15T00:18:37.481Z,8.72
2023-04-15T00:21:05.465Z,8.70
2023-04-15T00:23:32.465Z,8.64
2023-04-15T00:26:00.568Z,8.58
2023-04-15T00:28:28.194Z,8.53
2023-04-15T00:30:55.400Z,8.50
2023-04-15T00:33:22.657Z,8.51
2023-04-15T00:35:49.912Z,8.48
2023-04-15T00:38:18.097Z,8.45
2023-04-15T00:40:45.776Z,8.40
2023-04-15T00:43:13.120Z,8.36
2023-04-15T00:45:40.047Z,8.31
2023-04-15T00:48:09.544Z,8.25
2023-04-15T00:50:37.068Z,8.22
2023-04-15T00:53:03.864Z,8.15
2023-04-15T00:55:31.829Z,8.11
2023-04-15T00:57:59.151Z,8.08
2023-04-15T01:00:26.940Z,8.07
2023-04-15T01:02:54.026Z,8.08
2023-04-15T01:05:21.070Z,8.09
2023-04-15T01:07:48.803Z,7.99
2023-04-15T01:10:16.123Z,7.95
2023-04-15T01:12:43.284Z,7.92
2023-04-15T01:15:11.095Z,7.89
2023-04-15T01:17:39.952Z,7.89
2023-04-15T01:20:10.083Z,7.91
2023-04-15T01:22:37.185Z,7.90
2023-04-15T01:25:11.500Z,7.93
2023-04-15T01:27:42.612Z,7.91
2023-04-15T01:30:11.536Z,7.91
2023-04-15T01:32:39.206Z,7.90
2023-04-15T01:35:06.434Z,7.86
2023-04-15T01:37:34.038Z,7.83
2023-04-15T01:40:01.329Z,7.83
2023-04-15T01:42:29.034Z,7.82
2023-04-15T01:44:56.322Z,7.87
2023-04-15T01:47:23.490Z,7.83
2023-04-15T01:49:50.480Z,7.85
2023-04-15T01:52:18.368Z,7.86
2023-04-15T01:54:45.776Z,7.83
2023-04-15T01:57:13.272Z,7.82
2023-04-15T01:59:42.266Z,7.84
2023-04-15T02:02:10.822Z,7.80
2023-04-15T02:04:38.171Z,7.81
2023-04-15T02:07:05.091Z,7.81
2023-04-15T02:09:32.106Z,7.75
2023-04-15T02:12:00.777Z,7.77
2023-04-15T02:14:28.130Z,7.80
2023-04-15T02:16:55.645Z,7.71
2023-04-15T02:19:22.865Z,7.70
2023-04-15T02:21:49.899Z,7.67
2023-04-15T02:24:16.794Z,7.68
2023-04-15T02:26:44.197Z,7.68
2023-04-15T02:29:11.108Z,7.66
2023-04-15T02:31:40.624Z,7.64
2023-04-15T02:34:08.302Z,7.62
2023-04-15T02:36:37.194Z,7.60
2023-04-15T02:39:04.360Z,7.58
2023-04-15T02:41:31.828Z,7.55
2023-04-15T02:43:58.992Z,7.52
2023-04-15T02:46:27.480Z,7.53
2023-04-15T02:48:54.550Z,7.51
2023-04-15T02:51:22.874Z,7.47
2023-04-15T02:53:51.946Z,7.41
2023-04-15T02:56:19.848Z,7.41
2023-04-15T02:58:46.799Z,7.40
2023-04-15T03:01:13.979Z,7.37
2023-04-15T03:03:41.448Z,7.38
2023-04-15T03:06:09.182Z,7.36
2023-04-15T03:08:36.545Z,7.38
2023-04-15T03:11:03.989Z,7.39
2023-04-15T03:13:30.920Z,7.37
2023-04-15T03:15:57.748Z,7.42
2023-04-15T03:18:24.606Z,7.40
2023-04-15T03:20:51.739Z,7.41
2023-04-15T03:23:18.422Z,7.39
2023-04-15T03:25:45.405Z,7.36
2023-04-15T03:28:12.452Z,7.34
2023-04-15T03:30:39.386Z,7.33
2023-04-15T03:33:07.073Z,7.30
2023-04-15T03:35:34.475Z,7.29
2023-04-15T03:38:01.944Z,7.26
2023-04-15T03:40:29.017Z,7.24
2023-04-15T03:42:56.269Z,7.22
2023-04-15T03:45:23.638Z,7.20
2023-04-15T03:47:51.583Z,7.21
2023-04-15T03:50:18.617Z,7.19
2023-04-15T03:52:46.811Z,7.17
2023-04-15T03:55:15.408Z,7.16
2023-04-15T03:57:43.977Z,7.15
2023-04-15T04:00:13.017Z,7.17
2023-04-15T04:02:41.177Z,7.16
2023-04-15T04:05:08.856Z,7.13
2023-04-15T04:07:35.549Z,7.14
2023-04-15T04:10:03.794Z,7.16
2023-04-15T04:12:31.616Z,7.22
2023-04-15T04:14:59.096Z,7.16
2023-04-15T04:17:26.174Z,7.13
2023-04-15T04:19:53.510Z,7.11
2023-04-15T04:22:24.508Z,7.06
2023-04-15T04:24:52.732Z,7.05
2023-04-15T04:27:20.079Z,7.01
2023-04-15T04:29:47.985Z,7.01
2023-04-15T04:32:15.443Z,6.99
2023-04-15T04:34:42.879Z,6.99
2023-04-15T04:37:11.125Z,7.02
2023-04-15T04:39:38.348Z,7.01
2023-04-15T04:42:04.981Z,7.01
2023-04-15T04:44:31.882Z,7.00
2023-04-15T04:46:59.090Z,6.99
2023-04-15T04:49:26.356Z,6.99
2023-04-15T04:51:53.360Z,6.98
2023-04-15T04:54:22.340Z,6.96
2023-04-15T04:56:50.541Z,6.93
2023-04-15T04:59:19.428Z,6.92
2023-04-15T05:01:46.676Z,6.95
2023-04-15T05:04:13.516Z,6.96
2023-04-15T05:06:40.909Z,6.96
2023-04-15T05:09:08.027Z,6.94
2023-04-15T05:11:35.035Z,6.96
2023-04-15T05:14:02.414Z,6.96
2023-04-15T05:16:29.529Z,6.91
2023-04-15T05:18:56.686Z,6.96
2023-04-15T05:21:23.843Z,6.93
2023-04-15T05:23:51.236Z,6.92
2023-04-15T05:26:18.306Z,6.97
2023-04-15T05:28:45.219Z,6.97
2023-04-15T05:31:12.034Z,7.00
2023-04-15T05:33:39.324Z,6.99
2023-04-15T05:36:06.627Z,7.01
2023-04-15T05:38:33.849Z,7.01
2023-04-15T05:41:01.324Z,7.05
2023-04-15T05:43:28.614Z,7.08
2023-04-15T05:45:55.748Z,7.12
2023-04-15T05:48:23.786Z,7.15
2023-04-15T05:50:51.085Z,7.21
2023-04-15T05:53:17.947Z,7.22
2023-04-15T05:55:44.731Z,7.28
2023-04-15T05:58:12.591Z,7.30
2023-04-15T06:00:40.410Z,7.35
2023-04-15T06:03:07.869Z,7.41
2023-04-15T06:05:34.830Z,7.47
2023-04-15T06:08:02.641Z,7.54
2023-04-15T06:10:29.739Z,7.61
2023-04-15T06:12:56.837Z,7.69
2023-04-15T06:15:24.119Z,7.75
2023-04-15T06:17:51.403Z,7.84
2023-04-15T06:20:18.936Z,7.93
2023-04-15T06:22:45.662Z,8.03
2023-04-15T06:25:13.271Z,8.14
2023-04-15T06:27:41.397Z,8.21
2023-04-15T06:30:09.082Z,8.31
2023-04-15T06:32:35.867Z,8.41
2023-04-15T06:35:02.848Z,8.53
2023-04-15T06:37:29.868Z,8.63
2023-04-15T06:39:56.971Z,8.76
2023-04-15T06:42:24.137Z,8.91
2023-04-15T06:44:51.244Z,8.94
2023-04-15T06:47:18.240Z,9.02
2023-04-15T06:49:45.268Z,9.15
2023-04-15T06:52:12.714Z,9.30
2023-04-15T06:54:40.113Z,9.41
2023-04-15T06:57:07.813Z,9.49
2023-04-15T06:59:35.005Z,9.63
2023-04-15T07:02:02.147Z,9.78
2023-04-15T07:04:29.439Z,9.87
2023-04-15T07:06:56.967Z,9.96
2023-04-15T07:09:24.749Z,10.08
2023-04-15T07:11:52.561Z,10.18
2023-04-15T07:14:19.389Z,10.22
2023-04-15T07:16:47.256Z,10.30
2023-04-15T07:19:14.109Z,10.36
2023-04-15T07:21:42.009Z,10.41
2023-04-15T07:24:10.535Z,10.50
2023-04-15T07:26:37.487Z,10.66
2023-04-15T07:29:06.081Z,10.69
2023-04-15T07:31:33.893Z,10.74
2023-04-15T07:34:00.713Z,10.80
2023-04-15T07:36:29.108Z,10.86
2023-04-15T07:38:56.238Z,10.86
2023-04-15T07:41:23.958Z,10.91
2023-04-15T07:43:51.485Z,10.91
2023-04-15T07:46:18.341Z,10.94
2023-04-15T07:48:45.478Z,11.06
2023-04-15T07:51:13.065Z,11.08
2023-04-15T07:53:39.946Z,11.15
2023-04-15T07:56:06.794Z,11.15
2023-04-15T07:58:34.049Z,11.12
2023-04-15T08:01:01.984Z,11.14
2023-04-15T08:03:29.533Z,11.24
2023-04-15T08:05:56.490Z,11.34
2023-04-15T08:08:25.524Z,11.47
2023-04-15T08:10:52.909Z,11.56
2023-04-15T08:13:20.813Z,11.60
2023-04-15T08:16:13.380Z,11.68
2023-04-15T08:18:40.848Z,11.79
2023-04-15T08:21:08.507Z,11.93
2023-04-15T08:23:35.425Z,11.92
2023-04-15T08:26:03.352Z,12.07
2023-04-15T08:28:30.645Z,12.17
2023-04-15T08:30:57.546Z,12.27
2023-04-15T08:33:24.327Z,12.26
2023-04-15T08:35:51.594Z,12.09
2023-04-15T08:38:19.004Z,12.07
2023-04-15T08:40:46.723Z,12.27
2023-04-15T08:43:37.037Z,12.26
2023-04-15T08:46:04.415Z,12.26
2023-04-15T08:48:34.737Z,12.31
2023-04-15T08:51:02.369Z,12.34
2023-04-15T08:53:30.762Z,12.32
2023-04-15T08:56:00.198Z,12.34
2023-04-15T08:58:27.617Z,12.40
2023-04-15T09:00:55.097Z,12.39
2023-04-15T09:03:23.779Z,12.41
2023-04-15T09:05:52.730Z,12.54
2023-04-15T09:08:20.513Z,12.61
2023-04-15T09:10:47.441Z,12.58
2023-04-15T09:13:14.379Z,12.65
2023-04-15T09:15:41.516Z,12.77
2023-04-15T09:18:11.478Z,12.77
2023-04-15T09:20:42.636Z,12.74
2023-04-15T09:23:15.544Z,12.77
2023-04-15T09:25:43.102Z,12.67
2023-04-15T09:28:11.220Z,12.58
2023-04-15T09:30:38.447Z,12.55
2023-04-15T09:33:08.363Z,12.62
2023-04-15T09:35:36.935Z,12.63
2023-04-15T09:38:07.323Z,12.74
2023-04-15T09:40:39.205Z,12.67
2023-04-15T09:43:07.390Z,12.68
2023-04-15T09:45:35.910Z,12.68
2023-04-15T09:48:21.118Z,12.63
2023-04-15T09:50:49.663Z,12.79
2023-04-15T09:53:19.087Z,12.90
2023-04-15T09:55:51.301Z,13.04
2023-04-15T09:58:19.906Z,13.13
2023-04-15T10:00:51.568Z,13.22
2023-04-15T10:03:24.491Z,13.42
2023-04-15T10:05:54.354Z,13.60
2023-04-15T10:08:23.967Z,13.52
2023-04-15T10:10:54.972Z,13.37
2023-04-15T10:13:25.401Z,13.48
2023-04-15T10:15:58.296Z,13.22
2023-04-15T10:18:27.202Z,13.07
2023-04-15T10:20:55.591Z,13.19
2023-04-15T10:23:24.508Z,13.39
2023-04-15T10:25:54.571Z,13.48
2023-04-15T10:28:25.499Z,13.57
2023-04-15T10:30:53.939Z,13.65
2023-04-15T10:33:24.528Z,13.73
2023-04-15T10:35:54.547Z,13.77
2023-04-15T10:38:44.218Z,13.69
2023-04-15T10:41:29.915Z,13.77
2023-04-15T10:44:01.920Z,13.89
2023-04-15T10:46:44.151Z,14.11
2023-04-15T10:49:13.582Z,14.06
2023-04-15T10:51:46.101Z,13.99
2023-04-15T10:54:25.311Z,13.82
2023-04-15T10:57:08.889Z,13.77
2023-04-15T10:59:58.236Z,13.72
2023-04-15T11:02:45.922Z,13.76
2023-04-15T11:05:14.763Z,13.68
2023-04-15T11:07:46.631Z,13.48
2023-04-15T11:10:26.011Z,13.27
2023-04-15T11:13:03.380Z,13.26
2023-04-15T11:15:38.862Z,13.21
2023-04-15T11:18:20.997Z,13.24
2023-04-15T11:20:59.651Z,13.32
2023-04-15T11:23:40.654Z,13.30
2023-04-15T11:26:15.501Z,13.44
2023-04-15T11:28:46.279Z,13.24
2023-04-15T11:31:17.868Z,13.40
2023-04-15T11:33:55.537Z,13.43
2023-04-15T11:36:27.750Z,13.38
2023-04-15T11:38:55.133Z,13.43
2023-04-15T11:41:23.305Z,13.59
2023-04-15T11:43:51.380Z,13.83
2023-04-15T11:46:19.243Z,13.76
2023-04-15T11:48:47.360Z,13.77
2023-04-15T11:51:15.064Z,13.60
2023-04-15T11:53:45.952Z,13.46
2023-04-15T11:56:21.975Z,13.42
2023-04-15T11:58:53.365Z,13.55
2023-04-15T12:01:20.391Z,13.59
2023-04-15T12:03:49.536Z,13.76
2023-04-15T12:06:22.419Z,13.81
2023-04-15T12:09:08.059Z,13.83
2023-04-15T12:11:58.642Z,13.57
2023-04-15T12:14:28.401Z,13.28
2023-04-15T12:17:00.091Z,13.04
2023-04-15T12:19:37.487Z,13.07
2023-04-15T12:22:12.789Z,13.07
2023-04-15T12:24:40.371Z,13.13
2023-04-15T12:27:09.022Z,13.24
2023-04-15T12:29:37.272Z,13.23
2023-04-15T12:32:07.777Z,13.17
2023-04-15T12:34:43.288Z,13.09
2023-04-15T12:37:11.836Z,13.24
2023-04-15T12:39:41.234Z,13.04
2023-04-15T12:42:13.254Z,13.04
2023-04-15T12:44:40.550Z,13.11
2023-04-15T12:47:08.737Z,13.27
2023-04-15T12:49:35.709Z,13.37
2023-04-15T12:52:03.880Z,13.60
2023-04-15T12:54:32.060Z,13.52
2023-04-15T12:56:59.879Z,13.62
2023-04-15T12:59:26.962Z,13.63
2023-04-15T13:01:54.416Z,13.56
2023-04-15T13:04:22.417Z,13.47
2023-04-15T13:06:50.473Z,13.22
2023-04-15T13:09:18.328Z,13.14
2023-04-15T13:11:45.283Z,12.92
2023-04-15T13:14:13.194Z,12.79
2023-04-15T13:16:40.976Z,12.65
2023-04-15T13:19:08.118Z,12.63
2023-04-15T13:21:36.403Z,12.61
2023-04-15T13:24:05.178Z,12.71
2023-04-15T13:26:32.873Z,12.77
2023-04-15T13:29:01.376Z,12.81
2023-04-15T13:31:28.821Z,12.86
2023-04-15T13:33:57.315Z,12.85
2023-04-15T13:36:24.420Z,12.78
2023-04-15T13:38:51.715Z,12.79
2023-04-15T13:41:20.099Z,12.66
2023-04-15T13:43:47.278Z,12.64
2023-04-15T13:46:14.769Z,12.52
2023-04-15T13:48:42.292Z,12.31
2023-04-15T13:51:10.193Z,12.28
2023-04-15T13:53:38.251Z,12.26
2023-04-15T13:56:08.427Z,12.12
2023-04-15T13:58:36.691Z,12.20
2023-04-15T14:01:05.712Z,12.29
2023-04-15T14:03:34.742Z,12.41
2023-04-15T14:06:02.134Z,12.42
2023-04-15T14:08:30.015Z,12.26
2023-04-15T14:10:57.836Z,12.29
2023-04-15T14:13:25.261Z,12.32
2023-04-15T14:15:54.533Z,12.37
2023-04-15T14:18:21.859Z,12.36
2023-04-15T14:20:49.114Z,12.35
2023-04-15T14:23:16.162Z,12.29
2023-04-15T14:25:45.061Z,12.25
2023-04-15T14:28:14.086Z,12.26
2023-04-15T14:30:40.882Z,12.29
2023-04-15T14:33:08.499Z,12.23
2023-04-15T14:35:35.884Z,12.12
2023-04-15T14:38:02.843Z,12.10
2023-04-15T14:40:29.531Z,12.07
2023-04-15T14:42:56.513Z,12.04
2023-04-15T14:45:24.273Z,11.91
2023-04-15T14:47:53.071Z,11.96
2023-04-15T14:50:20.399Z,12.05
2023-04-15T14:52:48.628Z,12.09
2023-04-15T14:55:15.609Z,12.08
2023-04-15T14:57:42.995Z,12.04
2023-04-15T15:00:13.789Z,12.06
2023-04-15T15:02:43.148Z,12.08
2023-04-15T15:05:10.759Z,11.99
2023-04-15T15:07:39.410Z,12.00
2023-04-15T15:10:07.414Z,12.02
2023-04-15T15:12:35.025Z,12.06
2023-04-15T15:15:09.550Z,12.13
2023-04-15T15:17:40.230Z,12.01
2023-04-15T15:20:07.798Z,11.93
2023-04-15T15:22:35.069Z,11.84
2023-04-15T15:25:02.649Z,11.71
2023-04-15T15:27:30.126Z,11.54
2023-04-15T15:29:57.279Z,11.54
2023-04-15T15:32:24.874Z,11.43
2023-04-15T15:34:52.557Z,11.47
2023-04-15T15:37:19.423Z,11.37
2023-04-15T15:39:46.598Z,11.29
2023-04-15T15:42:13.716Z,11.23
2023-04-15T15:44:40.879Z,11.19
2023-04-15T15:47:07.896Z,11.16
2023-04-15T15:49:36.116Z,11.17
2023-04-15T15:52:02.873Z,11.20
2023-04-15T15:54:30.115Z,11.06
2023-04-15T15:56:57.517Z,11.09
2023-04-15T15:59:27.798Z,10.94
2023-04-15T16:01:55.843Z,10.96
2023-04-15T16:04:23.575Z,10.95
2023-04-15T16:06:50.720Z,10.94
2023-04-15T16:09:18.609Z,10.78
2023-04-15T16:11:45.794Z,10.68
2023-04-15T16:14:14.208Z,10.60
2023-04-15T16:16:41.403Z,10.54
2023-04-15T16:19:09.356Z,10.52
2023-04-15T16:21:36.593Z,10.46
2023-04-15T16:24:03.405Z,10.42
2023-04-15T16:26:30.708Z,10.42
2023-04-15T16:28:57.566Z,10.41
2023-04-15T16:31:25.086Z,10.39
2023-04-15T16:33:52.667Z,10.40
2023-04-15T16:36:21.236Z,10.37
2023-04-15T16:38:48.696Z,10.36
2023-04-15T16:41:16.478Z,10.33
2023-04-15T16:43:43.184Z,10.29
2023-04-15T16:46:10.323Z,10.31
2023-04-15T16:48:37.201Z,10.29
2023-04-15T16:51:04.743Z,10.23
2023-04-15T16:53:32.110Z,10.20
2023-04-15T16:55:59.181Z,10.18
2023-04-15T16:58:27.689Z,10.19
2023-04-15T17:00:55.999Z,10.14
2023-04-15T17:03:23.566Z,10.16
2023-04-15T17:05:50.993Z,10.12
2023-04-15T17:08:18.194Z,10.03
2023-04-15T17:10:45.611Z,10.01
2023-04-15T17:13:13.706Z,9.99
2023-04-15T17:15:40.896Z,9.91
2023-04-15T17:18:08.745Z,9.92
2023-04-15T17:20:35.860Z,9.94
2023-04-15T17:23:03.947Z,9.95
2023-04-15T17:25:30.856Z,10.01
2023-04-15T17:27:57.882Z,9.95
2023-04-15T17:30:25.015Z,9.94
2023-04-15T17:32:53.628Z,9.92
2023-04-15T17:35:20.936Z,9.99
2023-04-15T17:37:48.123Z,9.97
2023-04-15T17:40:15.158Z,10.08
2023-04-15T17:42:42.743Z,9.99
2023-04-15T17:45:10.796Z,10.01
2023-04-15T17:47:37.974Z,9.99
2023-04-15T17:50:07.099Z,9.97
2023-04-15T17:52:34.406Z,9.94
2023-04-15T17:55:01.444Z,9.97
2023-04-15T17:57:28.386Z,9.81
2023-04-15T17:59:55.455Z,9.81
2023-04-15T18:02:23.712Z,9.84
2023-04-15T18:04:50.997Z,9.76
2023-04-15T18:07:18.152Z,9.74
2023-04-15T18:09:45.822Z,9.62
2023-04-15T18:12:12.793Z,9.66
2023-04-15T18:14:40.085Z,9.52
2023-04-15T18:17:07.400Z,9.48
2023-04-15T18:19:35.552Z,9.42
2023-04-15T18:22:06.919Z,9.39
2023-04-15T18:24:33.941Z,9.39
2023-04-15T18:27:02.379Z,9.43
2023-04-15T18:29:31.281Z,9.39
2023-04-15T18:32:03.557Z,9.35
2023-04-15T18:34:30.675Z,9.31
2023-04-15T18:36:58.633Z,9.31
2023-04-15T18:39:26.957Z,9.30
2023-04-15T18:41:56.591Z,9.31
2023-04-15T18:44:23.562Z,9.31
2023-04-15T18:46:50.493Z,9.30
2023-04-15T18:49:17.540Z,9.32
2023-04-15T18:51:44.726Z,9.34
2023-04-15T18:54:12.196Z,9.32
2023-04-15T18:56:39.837Z,9.31
2023-04-15T18:59:23.112Z,9.23
2023-04-15T19:01:54.204Z,9.20
2023-04-15T19:04:21.181Z,9.22
2023-04-15T19:06:48.363Z,9.20
2023-04-15T19:09:16.809Z,9.16
2023-04-15T19:11:44.081Z,9.19
2023-04-15T19:14:11.672Z,9.15
2023-04-15T19:16:39.684Z,9.11
2023-04-15T19:19:07.017Z,9.07
2023-04-15T19:21:34.245Z,9.04
2023-04-15T19:24:02.182Z,9.03
2023-04-15T19:26:29.453Z,9.01
2023-04-15T19:28:58.932Z,9.02
2023-04-15T19:31:26.352Z,9.00
2023-04-15T19:33:53.870Z,9.03
2023-04-15T19:36:21.336Z,9.06
2023-04-15T19:38:48.841Z,9.06
2023-04-15T19:41:15.933Z,9.02
2023-04-15T19:43:43.854Z,8.99
2023-04-15T19:46:13.246Z,8.96
2023-04-15T19:48:41.244Z,8.97
2023-04-15T19:51:08.045Z,8.95
2023-04-15T19:53:36.123Z,8.99
2023-04-15T19:56:03.405Z,8.97
2023-04-15T19:58:34.231Z,8.99
2023-04-15T20:01:02.277Z,8.94
2023-04-15T20:03:29.374Z,8.91
2023-04-15T20:05:57.214Z,8.91
2023-04-15T20:08:24.965Z,8.91
2023-04-15T20:10:52.099Z,8.94
2023-04-15T20:13:18.878Z,8.89
2023-04-15T20:15:45.974Z,8.84
2023-04-15T20:18:13.190Z,8.90
2023-04-15T20:20:40.506Z,8.90
2023-04-15T20:23:07.233Z,8.90
2023-04-15T20:25:34.126Z,8.94
2023-04-15T20:28:01.498Z,8.92
2023-04-15T20:30:29.344Z,8.83
2023-04-15T20:32:56.286Z,8.86
2023-04-15T20:35:23.175Z,8.81
2023-04-15T20:37:50.613Z,8.87
2023-04-15T20:40:17.805Z,8.89
2023-04-15T20:42:45.669Z,8.86
2023-04-15T20:45:13.625Z,8.75
2023-04-15T20:47:42.278Z,8.79
2023-04-15T20:50:09.768Z,8.74
2023-04-15T20:52:36.568Z,8.80
2023-04-15T20:55:04.304Z,8.78
2023-04-15T20:57:31.746Z,8.78
2023-04-15T20:59:58.769Z,8.79
2023-04-15T21:02:26.423Z,8.84
2023-04-15T21:04:53.819Z,8.82
2023-04-15T21:07:20.751Z,8.88
2023-04-15T21:09:47.717Z,8.82
2023-04-15T21:12:15.737Z,8.81
2023-04-15T21:14:43.057Z,8.81
2023-04-15T21:17:11.344Z,8.80
2023-04-15T21:19:38.789Z,8.80
2023-04-15T21:22:05.787Z,8.82
2023-04-15T21:24:32.951Z,8.76
2023-04-15T21:27:01.886Z,8.77
2023-04-15T21:29:29.177Z,8.83
2023-04-15T21:31:56.524Z,8.84
2023-04-15T21:34:23.536Z,8.99
2023-04-15T21:36:50.729Z,8.86
2023-04-15T21:39:18.735Z,8.90
2023-04-15T21:41:46.109Z,8.92
2023-04-15T21:44:15.120Z,8.91
2023-04-15T21:46:46.145Z,8.88
2023-04-15T21:49:13.871Z,8.84
2023-04-15T21:51:40.991Z,8.79
2023-04-15T21:54:08.639Z,8.83
2023-04-15T21:56:35.530Z,8.74
2023-04-15T21:59:03.214Z,8.77
2023-04-15T22:01:30.468Z,8.75
2023-04-15T22:03:57.534Z,8.79
2023-04-15T22:06:25.243Z,8.78
2023-04-15T22:08:56.968Z,8.80
2023-04-15T22:11:28.792Z,8.86
2023-04-15T22:13:59.479Z,8.85
2023-04-15T22:16:27.244Z,8.85
2023-04-15T22:18:54.919Z,8.88
2023-04-15T22:21:22.465Z,8.81
2023-04-15T22:23:49.630Z,8.81
2023-04-15T22:26:16.453Z,8.89
2023-04-15T22:28:43.604Z,8.83
2023-04-15T22:31:10.764Z,8.84
2023-04-15T22:33:37.427Z,8.84
2023-04-15T22:36:04.695Z,8.84
2023-04-15T22:38:31.943Z,8.83
2023-04-15T22:40:59.153Z,8.83
2023-04-15T22:43:27.390Z,8.87
2023-04-15T22:45:55.012Z,8.81
2023-04-15T22:48:22.663Z,8.87
2023-04-15T22:50:49.904Z,8.86
2023-04-15T22:53:17.772Z,8.88
2023-04-15T22:55:47.346Z,8.89
2023-04-15T22:58:15.478Z,8.89
2023-04-15T23:00:42.618Z,8.93
2023-04-15T23:03:09.733Z,8.91
2023-04-15T23:05:37.121Z,8.97
2023-04-15T23:08:04.621Z,8.94
2023-04-15T23:10:31.996Z,8.94
2023-04-15T23:12:59.269Z,8.97
2023-04-15T23:15:27.137Z,8.95
2023-04-15T23:17:54.261Z,8.95
2023-04-15T23:20:21.264Z,8.98
2023-04-15T23:22:47.967Z,9.04
2023-04-15T23:25:14.934Z,9.00
2023-04-15T23:27:41.748Z,9.14
2023-04-15T23:30:08.809Z,9.02
2023-04-15T23:32:35.891Z,9.01
2023-04-15T23:35:04.090Z,9.02
2023-04-15T23:37:31.696Z,9.07
2023-04-15T23:39:58.855Z,9.10
2023-04-15T23:42:25.947Z,9.02
2023-04-15T23:44:53.489Z,9.01
2023-04-15T23:47:21.554Z,8.98
2023-04-15T23:49:48.340Z,8.99
2023-04-15T23:52:16.197Z,8.96
2023-04-15T23:54:43.942Z,8.95
2023-04-15T23:57:10.901Z,8.99
2023-04-15T23:59:37.922Z,8.98
